Time;durP1;ratioP1;P1;durP2;ratioP2;P2;SDS_P1;SDS_P2;PMS_P1;PMS_P2;Temp;Humidity;BMP_temperature;BMP_pressure;BME280_temperature;BME280_humidity;BME280_pressure;Samples;Min_cycle;Max_cycle;Signal;HPM_P1;HPM_P2
2021/06/01 00:01:43;;;;;;;2.13;1.58;;;;;;;;;;5030428;28;20049;-78
2021/06/01 00:04:10;;;;;;;2.85;1.45;;;;;;;;;;5034233;28;20029;-79
2021/06/01 00:06:36;;;;;;;1.95;1.73;;;;;;;;;;5034957;28;20064;-79
2021/06/01 00:09:04;;;;;;;2.67;1.60;;;;;;;;;;5033874;28;20069;-79
2021/06/01 00:11:30;;;;;;;1.95;1.73;;;;;;;;;;5025003;28;20028;-80
2021/06/01 00:13:56;;;;;;;2.00;1.85;;;;;;;;;;5017112;28;20033;-79
2021/06/01 00:16:23;;;;;;;1.52;1.42;;;;;;;;;;5014180;28;20022;-78
2021/06/01 00:18:49;;;;;;;3.63;1.50;;;;;;;;;;5014285;28;20475;-79
2021/06/01 00:21:15;;;;;;;1.90;1.50;;;;;;;;;;5029134;28;20034;-78
2021/06/01 00:23:41;;;;;;;1.90;1.58;;;;;;;;;;5028752;28;20026;-78
2021/06/01 00:26:08;;;;;;;3.25;1.73;;;;;;;;;;5013930;28;20041;-78
2021/06/01 00:28:35;;;;;;;2.53;1.95;;;;;;;;;;5014118;28;20053;-79
2021/06/01 00:31:01;;;;;;;2.03;1.80;;;;;;;;;;5029181;28;20049;-77
2021/06/01 00:33:27;;;;;;;1.50;1.40;;;;;;;;;;5014851;28;20033;-77
2021/06/01 00:35:54;;;;;;;3.03;1.77;;;;;;;;;;5014000;28;20033;-78
2021/06/01 00:38:20;;;;;;;1.48;1.35;;;;;;;;;;5014317;28;20029;-77
2021/06/01 00:40:46;;;;;;;1.23;1.08;;;;;;;;;;5013866;28;20072;-77
2021/06/01 00:43:12;;;;;;;1.63;1.52;;;;;;;;;;5013492;28;20026;-78
2021/06/01 00:45:38;;;;;;;1.63;1.52;;;;;;;;;;5014559;28;20041;-78
2021/06/01 00:48:05;;;;;;;2.15;1.73;;;;;;;;;;5029894;28;20033;-77
2021/06/01 00:50:31;;;;;;;3.60;1.55;;;;;;;;;;5014026;28;20422;-78
2021/06/01 00:52:58;;;;;;;1.40;1.30;;;;;;;;;;5012980;28;20030;-77
2021/06/01 00:55:24;;;;;;;1.83;1.70;;;;;;;;;;5034926;23;20490;-78
2021/06/01 00:57:51;;;;;;;1.75;1.60;;;;;;;;;;5016945;28;20032;-78
2021/06/01 01:00:35;;;;;;;2.38;1.80;;;;;;;;;;5035899;28;20132;-78
2021/06/01 01:03:02;;;;;;;2.53;1.63;;;;;;;;;;5035792;28;20026;-79
2021/06/01 01:05:35;;;;;;;1.77;1.65;;;;;;;;;;5036160;28;20029;-79
2021/06/01 01:08:21;;;;;;;1.90;1.70;;;;;;;;;;5036101;28;20045;-79
2021/06/01 01:10:53;;;;;;;2.75;1.85;;;;;;;;;;5011830;28;20049;-79
2021/06/01 01:13:19;;;;;;;1.50;1.40;;;;;;;;;;5027092;28;20033;-79
2021/06/01 01:15:47;;;;;;;1.30;1.20;;;;;;;;;;5036158;28;20025;-80
2021/06/01 01:18:15;;;;;;;1.30;1.20;;;;;;;;;;5035197;28;20029;-79
2021/06/01 01:20:47;;;;;;;2.70;1.27;;;;;;;;;;5034143;28;20508;-79
2021/06/01 01:23:15;;;;;;;1.20;1.10;;;;;;;;;;5036397;28;20029;-80
2021/06/01 01:26:01;;;;;;;1.23;1.13;;;;;;;;;;5051798;28;20043;-80
2021/06/01 01:28:46;;;;;;;1.58;1.17;;;;;;;;;;5044811;28;20092;-78
2021/06/01 01:31:15;;;;;;;1.52;1.30;;;;;;;;;;5019195;28;20044;-79
2021/06/01 01:33:43;;;;;;;1.17;1.10;;;;;;;;;;5017029;28;20449;-78
2021/06/01 01:36:11;;;;;;;1.80;1.33;;;;;;;;;;5031723;28;20041;-80
2021/06/01 01:38:39;;;;;;;0.93;0.93;;;;;;;;;;5017119;28;20022;-79
2021/06/01 01:41:11;;;;;;;1.35;1.00;;;;;;;;;;5029586;28;20079;-79
2021/06/01 01:43:38;;;;;;;1.35;1.25;;;;;;;;;;5030714;28;20415;-79
2021/06/01 01:46:09;;;;;;;1.48;1.38;;;;;;;;;;5035430;28;20042;-80
2021/06/01 01:51:21;;;;;;;2.08;1.55;;;;;;;;;;5036728;28;20086;-79
2021/06/01 01:53:51;;;;;;;2.35;1.92;;;;;;;;;;5051402;28;20032;-80
2021/06/01 01:56:20;;;;;;;1.63;1.52;;;;;;;;;;5051085;28;20045;-79
2021/06/01 01:58:48;;;;;;;2.25;1.63;;;;;;;;;;5030213;28;20041;-79
2021/06/01 02:01:14;;;;;;;1.52;1.42;;;;;;;;;;5017163;28;20068;-78
2021/06/01 02:03:41;;;;;;;3.17;1.50;;;;;;;;;;5037197;28;20052;-79
2021/06/01 02:06:07;;;;;;;1.35;1.25;;;;;;;;;;5037694;28;20033;-79
2021/06/01 02:08:33;;;;;;;1.65;1.55;;;;;;;;;;5035752;28;20025;-78
2021/06/01 02:10:59;;;;;;;1.55;1.45;;;;;;;;;;5021720;28;20058;-78
2021/06/01 02:13:28;;;;;;;1.40;1.30;;;;;;;;;;5033163;28;20030;-79
2021/06/01 02:15:55;;;;;;;1.58;1.48;;;;;;;;;;5039411;28;20041;-79
2021/06/01 02:18:21;;;;;;;1.10;1.02;;;;;;;;;;5044153;28;20245;-79
2021/06/01 02:20:50;;;;;;;1.48;1.33;;;;;;;;;;5041004;28;20029;-79
2021/06/01 02:26:06;;;;;;;2.47;1.05;;;;;;;;;;5039818;28;20052;-80
2021/06/01 02:28:35;;;;;;;1.30;1.20;;;;;;;;;;5040263;28;20078;-81
2021/06/01 02:31:06;;;;;;;1.10;0.82;;;;;;;;;;5023124;28;20058;-79
2021/06/01 02:33:33;;;;;;;1.00;0.98;;;;;;;;;;5034578;28;20033;-79
2021/06/01 02:36:03;;;;;;;1.80;1.23;;;;;;;;;;5022575;28;20129;-79
2021/06/01 02:38:32;;;;;;;1.23;1.13;;;;;;;;;;5046325;28;20060;-78
2021/06/01 02:41:01;;;;;;;1.52;1.42;;;;;;;;;;5056919;28;20091;-79
2021/06/01 02:43:27;;;;;;;1.52;1.38;;;;;;;;;;5055567;28;20098;-79
2021/06/01 02:45:53;;;;;;;1.75;1.65;;;;;;;;;;5046614;28;20026;-79
2021/06/01 02:48:21;;;;;;;2.00;1.63;;;;;;;;;;5043249;28;20042;-79
2021/06/01 02:50:48;;;;;;;3.35;1.40;;;;;;;;;;5051508;28;20041;-78
2021/06/01 02:53:15;;;;;;;1.33;1.23;;;;;;;;;;5068528;28;20037;-78
2021/06/01 02:55:41;;;;;;;1.58;1.33;;;;;;;;;;5054925;28;20053;-77
2021/06/01 02:58:09;;;;;;;1.55;1.45;;;;;;;;;;5050606;28;20465;-79
2021/06/01 03:00:36;;;;;;;1.52;1.35;;;;;;;;;;5049268;28;20033;-77
2021/06/01 03:03:09;;;;;;;2.15;1.40;;;;;;;;;;5053783;28;20508;-78
2021/06/01 03:05:35;;;;;;;1.48;1.00;;;;;;;;;;5051274;28;20045;-79
2021/06/01 03:08:10;;;;;;;1.40;1.30;;;;;;;;;;5043319;28;20026;-79
2021/06/01 03:10:37;;;;;;;1.52;1.10;;;;;;;;;;5029171;28;20030;-78
2021/06/01 03:13:03;;;;;;;1.50;1.40;;;;;;;;;;5037332;28;20033;-80
2021/06/01 03:15:30;;;;;;;1.50;1.40;;;;;;;;;;5044100;28;20017;-79
2021/06/01 03:17:56;;;;;;;2.88;2.10;;;;;;;;;;5040196;28;20044;-79
2021/06/01 03:20:22;;;;;;;1.60;1.50;;;;;;;;;;5038905;28;20121;-79
2021/06/01 03:22:48;;;;;;;1.38;1.10;;;;;;;;;;5040344;28;20057;-80
2021/06/01 03:25:14;;;;;;;1.50;1.40;;;;;;;;;;5057066;28;20548;-79
2021/06/01 03:27:40;;;;;;;1.70;1.60;;;;;;;;;;5043885;28;20068;-79
2021/06/01 03:30:07;;;;;;;1.00;1.00;;;;;;;;;;5035665;28;20025;-79
2021/06/01 03:32:33;;;;;;;1.48;1.30;;;;;;;;;;5037363;28;20116;-79
2021/06/01 03:35:00;;;;;;;1.08;1.08;;;;;;;;;;5021972;28;20045;-79
2021/06/01 03:37:26;;;;;;;1.85;1.70;;;;;;;;;;5020359;28;20084;-78
2021/06/01 03:39:52;;;;;;;1.50;1.40;;;;;;;;;;5019414;28;20085;-78
2021/06/01 03:42:18;;;;;;;1.92;1.83;;;;;;;;;;5050190;28;20105;-78
2021/06/01 03:44:44;;;;;;;1.52;1.42;;;;;;;;;;5018330;28;20033;-79
2021/06/01 03:47:10;;;;;;;2.38;1.60;;;;;;;;;;5017421;28;20030;-80
2021/06/01 03:49:37;;;;;;;1.60;1.48;;;;;;;;;;5032005;28;20382;-78
2021/06/01 03:52:08;;;;;;;1.80;1.55;;;;;;;;;;5040233;28;20053;-78
2021/06/01 03:54:37;;;;;;;1.58;1.42;;;;;;;;;;5058430;28;20437;-78
2021/06/01 03:57:04;;;;;;;1.60;1.50;;;;;;;;;;5042851;28;20021;-78
2021/06/01 03:59:30;;;;;;;1.45;1.30;;;;;;;;;;5032956;28;20041;-79
2021/06/01 04:01:56;;;;;;;1.10;1.10;;;;;;;;;;5020380;28;20030;-79
2021/06/01 04:04:22;;;;;;;1.45;1.30;;;;;;;;;;5019662;28;20041;-80
2021/06/01 04:06:51;;;;;;;1.42;1.33;;;;;;;;;;5018817;28;20104;-80
2021/06/01 04:09:17;;;;;;;1.48;1.38;;;;;;;;;;5038585;28;20366;-80
2021/06/01 04:11:43;;;;;;;1.50;1.40;;;;;;;;;;5050788;28;20067;-79
2021/06/01 04:14:10;;;;;;;2.63;2.00;;;;;;;;;;5047266;28;20114;-79
2021/06/01 04:16:36;;;;;;;1.98;1.83;;;;;;;;;;5045172;28;20033;-79
2021/06/01 04:19:02;;;;;;;2.20;2.00;;;;;;;;;;5041405;28;20108;-79
2021/06/01 04:21:28;;;;;;;2.45;1.48;;;;;;;;;;5034491;28;20495;-80
2021/06/01 04:23:54;;;;;;;1.83;1.67;;;;;;;;;;5019702;28;20050;-80
2021/06/01 04:26:20;;;;;;;1.40;1.27;;;;;;;;;;5035316;28;20034;-79
2021/06/01 04:28:46;;;;;;;1.98;1.77;;;;;;;;;;5036477;28;20041;-79
2021/06/01 04:31:12;;;;;;;3.88;2.00;;;;;;;;;;5023012;28;20114;-79
2021/06/01 04:33:38;;;;;;;1.67;1.58;;;;;;;;;;5028869;28;20566;-80
2021/06/01 04:36:05;;;;;;;5.30;2.42;;;;;;;;;;5040001;28;20063;-79
2021/06/01 04:38:31;;;;;;;4.22;2.60;;;;;;;;;;5031389;28;20022;-80
2021/06/01 04:40:57;;;;;;;2.72;2.25;;;;;;;;;;5041500;28;20025;-79
2021/06/01 04:43:23;;;;;;;1.80;1.70;;;;;;;;;;5030688;28;20029;-80
2021/06/01 04:45:49;;;;;;;3.22;1.90;;;;;;;;;;5040290;28;20041;-78
2021/06/01 04:48:15;;;;;;;2.42;1.92;;;;;;;;;;5036704;28;20014;-81
2021/06/01 04:50:41;;;;;;;5.28;1.83;;;;;;;;;;5017734;28;20034;-79
2021/06/01 04:53:07;;;;;;;2.90;1.85;;;;;;;;;;5018847;28;20033;-79
2021/06/01 04:55:33;;;;;;;2.30;1.42;;;;;;;;;;5018132;28;20079;-78
2021/06/01 04:57:59;;;;;;;3.08;2.10;;;;;;;;;;5017976;28;20065;-80
2021/06/01 05:00:25;;;;;;;2.83;2.47;;;;;;;;;;5018308;28;20038;-81
2021/06/01 05:02:52;;;;;;;2.28;2.00;;;;;;;;;;5032908;28;20040;-81
2021/06/01 05:05:18;;;;;;;2.47;2.28;;;;;;;;;;5037459;28;20089;-81
2021/06/01 05:07:44;;;;;;;3.58;1.98;;;;;;;;;;5037043;28;20026;-80
2021/06/01 05:10:10;;;;;;;2.70;1.70;;;;;;;;;;5031095;28;20088;-81
2021/06/01 05:12:37;;;;;;;1.70;1.60;;;;;;;;;;5036230;28;20179;-80
2021/06/01 05:15:03;;;;;;;1.73;1.60;;;;;;;;;;5040276;28;20033;-79
2021/06/01 05:17:29;;;;;;;2.53;1.52;;;;;;;;;;5024305;28;20080;-79
2021/06/01 05:19:55;;;;;;;2.08;1.70;;;;;;;;;;5032572;28;20025;-79
2021/06/01 05:22:22;;;;;;;1.92;1.40;;;;;;;;;;5044385;28;20037;-79
2021/06/01 05:24:49;;;;;;;1.75;1.60;;;;;;;;;;5060567;28;20033;-79
2021/06/01 05:27:15;;;;;;;1.65;1.55;;;;;;;;;;5043706;28;20032;-77
2021/06/01 05:29:49;;;;;;;2.35;1.75;;;;;;;;;;5042059;28;20112;-78
2021/06/01 05:33:03;;;;;;;3.22;1.40;;;;;;;;;;5020467;28;20022;-79
2021/06/01 05:35:32;;;;;;;1.40;1.30;;;;;;;;;;5022194;28;20117;-79
2021/06/01 05:38:01;;;;;;;2.28;1.38;;;;;;;;;;5020262;28;20025;-79
2021/06/01 05:40:28;;;;;;;4.45;1.90;;;;;;;;;;5017972;28;20029;-78
2021/06/01 05:42:54;;;;;;;1.80;1.70;;;;;;;;;;5026655;28;20053;-78
2021/06/01 05:45:20;;;;;;;1.40;1.30;;;;;;;;;;5020733;28;20038;-79
2021/06/01 05:47:46;;;;;;;1.33;1.23;;;;;;;;;;5043031;28;20022;-79
2021/06/01 05:50:12;;;;;;;1.55;1.20;;;;;;;;;;5018532;28;20471;-77
2021/06/01 05:52:38;;;;;;;2.15;1.35;;;;;;;;;;5041511;28;20041;-78
2021/06/01 05:55:05;;;;;;;2.25;1.33;;;;;;;;;;5044619;28;20052;-78
2021/06/01 05:57:31;;;;;;;1.98;1.42;;;;;;;;;;5040096;28;20498;-80
2021/06/01 05:59:57;;;;;;;1.63;1.50;;;;;;;;;;5041844;28;20036;-79
2021/06/01 06:02:23;;;;;;;4.57;2.35;;;;;;;;;;5040517;28;20437;-79
2021/06/01 06:04:50;;;;;;;1.83;1.70;;;;;;;;;;5046132;28;20017;-79
2021/06/01 06:07:16;;;;;;;1.45;1.35;;;;;;;;;;5047858;28;20032;-79
2021/06/01 06:09:42;;;;;;;1.85;1.48;;;;;;;;;;5047291;28;20052;-80
2021/06/01 06:12:08;;;;;;;2.20;1.90;;;;;;;;;;5055106;28;20078;-77
2021/06/01 06:14:34;;;;;;;1.67;1.33;;;;;;;;;;5023673;28;20145;-77
2021/06/01 06:17:02;;;;;;;1.35;1.25;;;;;;;;;;5039209;28;20026;-77
2021/06/01 06:19:29;;;;;;;1.48;1.38;;;;;;;;;;5030375;28;20368;-77
2021/06/01 06:21:55;;;;;;;2.08;1.98;;;;;;;;;;5030708;28;20111;-78
2021/06/01 06:24:21;;;;;;;1.70;1.60;;;;;;;;;;5039140;28;20030;-79
2021/06/01 06:26:47;;;;;;;1.65;1.30;;;;;;;;;;5038014;28;20065;-78
2021/06/01 06:29:13;;;;;;;2.60;2.00;;;;;;;;;;5021798;28;20030;-79
2021/06/01 06:31:39;;;;;;;1.67;1.55;;;;;;;;;;5023056;28;20386;-79
2021/06/01 06:34:05;;;;;;;1.75;1.65;;;;;;;;;;5026232;28;20025;-78
2021/06/01 06:36:31;;;;;;;1.70;1.58;;;;;;;;;;5023251;28;20077;-80
2021/06/01 06:38:57;;;;;;;2.78;1.90;;;;;;;;;;5024268;28;20025;-79
2021/06/01 06:41:24;;;;;;;1.40;1.30;;;;;;;;;;5043071;28;20124;-79
2021/06/01 06:43:52;;;;;;;1.42;1.33;;;;;;;;;;5027032;28;20033;-79
2021/06/01 06:48:51;;;;;;;1.75;1.50;;;;;;;;;;5024535;28;20030;-78
2021/06/01 06:51:17;;;;;;;3.92;1.75;;;;;;;;;;5039083;28;20025;-81
2021/06/01 06:53:55;;;;;;;1.50;1.40;;;;;;;;;;5065226;22;20041;-82
2021/06/01 06:56:22;;;;;;;1.58;1.48;;;;;;;;;;5017899;28;20121;-82
2021/06/01 06:58:49;;;;;;;1.67;1.58;;;;;;;;;;5025183;28;20026;-83
2021/06/01 07:01:15;;;;;;;1.63;1.35;;;;;;;;;;5020167;28;20041;-82
2021/06/01 07:03:41;;;;;;;2.60;1.27;;;;;;;;;;5031731;28;20120;-82
2021/06/01 07:06:07;;;;;;;1.85;1.50;;;;;;;;;;5061830;28;20029;-82
2021/06/01 07:08:33;;;;;;;1.73;1.15;;;;;;;;;;5060608;28;20108;-82
2021/06/01 07:11:00;;;;;;;2.63;1.88;;;;;;;;;;5057370;28;20026;-82
2021/06/01 07:13:31;;;;;;;1.70;1.27;;;;;;;;;;5066922;28;20028;-82
2021/06/01 07:15:57;;;;;;;1.30;1.20;;;;;;;;;;5070936;28;20358;-83
2021/06/01 07:18:23;;;;;;;1.92;1.60;;;;;;;;;;5045984;28;20105;-83
2021/06/01 07:20:49;;;;;;;4.90;1.88;;;;;;;;;;5046221;28;20077;-83
2021/06/01 07:23:15;;;;;;;2.83;2.20;;;;;;;;;;5046173;28;20045;-82
2021/06/01 07:25:41;;;;;;;4.15;1.80;;;;;;;;;;5064102;28;20036;-82
2021/06/01 07:28:07;;;;;;;4.35;1.83;;;;;;;;;;5066873;28;20036;-81
2021/06/01 07:30:34;;;;;;;2.25;1.77;;;;;;;;;;5068593;28;20021;-81
2021/06/01 07:33:00;;;;;;;2.15;1.98;;;;;;;;;;5065394;28;20021;-81
2021/06/01 07:35:27;;;;;;;3.75;2.13;;;;;;;;;;5062523;28;20511;-81
2021/06/01 07:37:53;;;;;;;4.63;1.77;;;;;;;;;;5060995;28;20032;-81
2021/06/01 07:40:19;;;;;;;1.90;1.65;;;;;;;;;;5059258;28;20076;-82
2021/06/01 07:42:45;;;;;;;4.32;1.92;;;;;;;;;;5054516;28;20080;-82
2021/06/01 07:45:12;;;;;;;2.55;1.80;;;;;;;;;;5053980;28;20025;-80
2021/06/01 07:47:38;;;;;;;2.67;1.75;;;;;;;;;;5040858;28;20084;-81
2021/06/01 07:50:05;;;;;;;2.67;1.85;;;;;;;;;;5037372;28;20398;-76
2021/06/01 07:52:31;;;;;;;3.10;1.90;;;;;;;;;;5034444;28;20044;-76
2021/06/01 07:54:57;;;;;;;5.80;2.08;;;;;;;;;;5034172;28;20502;-77
2021/06/01 07:57:24;;;;;;;3.40;2.08;;;;;;;;;;5034448;28;20028;-76
2021/06/01 07:59:50;;;;;;;3.25;2.05;;;;;;;;;;5034701;28;20021;-77
2021/06/01 08:02:16;;;;;;;4.65;1.75;;;;;;;;;;5037708;28;20026;-79
2021/06/01 08:04:42;;;;;;;3.10;1.45;;;;;;;;;;5035277;28;20036;-77
2021/06/01 08:07:09;;;;;;;1.73;1.63;;;;;;;;;;5037073;28;20032;-78
2021/06/01 08:09:35;;;;;;;2.30;2.10;;;;;;;;;;5037434;28;20071;-78
2021/06/01 08:12:05;;;;;;;2.10;1.90;;;;;;;;;;5045865;28;20036;-82
2021/06/01 08:14:31;;;;;;;3.38;2.05;;;;;;;;;;5044395;28;20081;-79
2021/06/01 08:16:58;;;;;;;2.25;2.05;;;;;;;;;;5035948;28;20032;-78
2021/06/01 08:19:31;;;;;;;2.05;1.85;;;;;;;;;;5034841;28;20064;-80
2021/06/01 08:22:32;;;;;;;2.97;1.73;;;;;;;;;;5041492;28;20017;-79
2021/06/01 08:24:49;;;;;;;2.13;1.73;;;;;;;;;;5040670;28;20429;-79
2021/06/01 08:27:15;;;;;;;1.92;1.63;;;;;;;;;;5057083;28;20146;-79
2021/06/01 08:29:41;;;;;;;3.13;1.80;;;;;;;;;;5056050;28;20071;-78
2021/06/01 08:32:08;;;;;;;3.72;1.88;;;;;;;;;;5052482;28;20029;-78
2021/06/01 08:34:34;;;;;;;3.60;1.73;;;;;;;;;;5035764;28;20289;-78
2021/06/01 08:37:00;;;;;;;1.98;1.50;;;;;;;;;;5035597;28;20119;-79
2021/06/01 08:39:26;;;;;;;1.90;1.80;;;;;;;;;;5035780;28;20416;-78
2021/06/01 08:41:57;;;;;;;1.83;1.73;;;;;;;;;;5043428;28;20035;-80
2021/06/01 08:44:24;;;;;;;2.83;1.95;;;;;;;;;;5050759;28;20025;-80
2021/06/01 08:46:51;;;;;;;3.88;1.80;;;;;;;;;;5052088;28;20104;-79
2021/06/01 08:49:20;;;;;;;2.78;1.88;;;;;;;;;;5035821;28;20028;-79
2021/06/01 08:51:47;;;;;;;2.60;2.05;;;;;;;;;;5034989;28;20033;-78
2021/06/01 08:54:13;;;;;;;2.97;1.60;;;;;;;;;;5035191;28;20056;-79
2021/06/01 08:56:39;;;;;;;4.18;1.70;;;;;;;;;;5034770;28;20554;-79
2021/06/01 08:59:05;;;;;;;2.45;1.85;;;;;;;;;;5034862;28;20151;-79
2021/06/01 09:01:34;;;;;;;2.15;1.60;;;;;;;;;;5037173;28;20040;-79
2021/06/01 09:04:06;;;;;;;6.35;1.88;;;;;;;;;;5036863;28;20114;-80
2021/06/01 09:06:43;;;;;;;3.45;1.65;;;;;;;;;;5049580;28;20053;-78
2021/06/01 09:12:12;;;;;;;1.45;1.35;;;;;;;;;;5050760;28;20096;-79
2021/06/01 09:22:54;;;;;;;1.67;1.55;;;;;;;;;;5075811;28;20108;-79
2021/06/01 09:28:10;;;;;;;2.97;1.40;;;;;;;;;;5074403;28;20040;-79
2021/06/01 09:30:45;;;;;;;2.28;1.73;;;;;;;;;;5075832;28;20029;-79
2021/06/01 09:33:32;;;;;;;3.20;2.00;;;;;;;;;;5075630;28;20059;-80
2021/06/01 09:35:58;;;;;;;4.07;2.80;;;;;;;;;;5059353;28;20043;-79
2021/06/01 09:38:28;;;;;;;5.43;2.75;;;;;;;;;;5055886;28;20043;-79
2021/06/01 09:41:10;;;;;;;5.13;2.95;;;;;;;;;;5056309;28;20021;-80
2021/06/01 09:43:57;;;;;;;3.70;2.83;;;;;;;;;;5071759;28;20120;-79
2021/06/01 09:46:30;;;;;;;2.15;1.92;;;;;;;;;;5069107;28;20098;-79
2021/06/01 09:49:15;;;;;;;6.63;2.30;;;;;;;;;;5071976;28;20101;-81
2021/06/01 09:51:43;;;;;;;2.00;1.90;;;;;;;;;;5053364;28;20029;-78
2021/06/01 09:54:33;;;;;;;2.58;1.83;;;;;;;;;;5050553;28;20033;-78
2021/06/01 09:57:00;;;;;;;2.35;1.58;;;;;;;;;;5050086;28;20074;-78
2021/06/01 09:59:27;;;;;;;2.28;1.33;;;;;;;;;;5050558;28;20024;-78
2021/06/01 10:01:53;;;;;;;4.10;1.80;;;;;;;;;;5046021;28;20048;-78
2021/06/01 10:04:24;;;;;;;5.78;1.83;;;;;;;;;;5045863;28;20199;-79
2021/06/01 10:06:50;;;;;;;4.15;2.13;;;;;;;;;;5058779;28;20029;-78
2021/06/01 10:09:17;;;;;;;2.70;1.45;;;;;;;;;;5058557;28;20473;-79
2021/06/01 10:11:58;;;;;;;1.85;1.67;;;;;;;;;;5050155;28;20025;-79
2021/06/01 10:14:25;;;;;;;3.38;1.70;;;;;;;;;;5055597;28;20041;-78
2021/06/01 10:16:52;;;;;;;1.92;1.58;;;;;;;;;;5074128;28;20025;-79
2021/06/01 10:19:18;;;;;;;3.20;1.63;;;;;;;;;;5071356;28;20021;-78
2021/06/01 10:21:45;;;;;;;3.67;1.90;;;;;;;;;;5058622;28;20029;-78
2021/06/01 10:24:15;;;;;;;2.10;1.42;;;;;;;;;;5036929;28;20029;-79
2021/06/01 10:26:41;;;;;;;3.78;1.90;;;;;;;;;;5035771;28;20033;-79
2021/06/01 10:29:08;;;;;;;4.80;1.90;;;;;;;;;;5036651;28;20029;-78
2021/06/01 10:31:35;;;;;;;4.82;2.28;;;;;;;;;;5039953;28;20032;-79
2021/06/01 10:34:01;;;;;;;3.08;1.80;;;;;;;;;;5034951;28;20072;-79
2021/06/01 10:50:25;;;;;;;4.40;1.80;;;;;;;;;;5023688;28;20063;-79
2021/06/01 10:53:07;;;;;;;2.83;1.80;;;;;;;;;;5035615;28;20030;-80
2021/06/01 10:55:55;;;;;;;2.92;2.17;;;;;;;;;;5036813;28;20025;-78
2021/06/01 10:58:31;;;;;;;2.10;1.85;;;;;;;;;;5044410;28;20029;-79
2021/06/01 11:04:08;;;;;;;1.80;1.70;;;;;;;;;;5029701;28;20052;-79
2021/06/01 11:06:54;;;;;;;12.27;2.33;;;;;;;;;;5042892;28;20025;-79
2021/06/01 11:09:37;;;;;;;2.53;1.80;;;;;;;;;;5055779;28;20021;-79
2021/06/01 11:12:24;;;;;;;4.93;2.17;;;;;;;;;;5047723;28;20025;-78
2021/06/01 11:14:51;;;;;;;2.88;1.65;;;;;;;;;;5051873;28;20025;-78
2021/06/01 11:17:53;;;;;;;1.80;1.70;;;;;;;;;;5059478;28;20033;-80
2021/06/01 11:20:32;;;;;;;3.80;1.70;;;;;;;;;;4981961;28;20029;-80
2021/06/01 11:33:34;;;;;;;2.80;1.80;;;;;;;;;;5065622;28;20477;-79
2021/06/01 11:36:02;;;;;;;3.72;1.60;;;;;;;;;;5065216;28;20089;-79
2021/06/01 11:43:49;;;;;;;1.52;1.38;;;;;;;;;;5050675;28;20036;-80
2021/06/01 11:51:21;;;;;;;6.90;1.83;;;;;;;;;;5036876;28;20038;-81
2021/06/01 11:54:03;;;;;;;5.30;1.80;;;;;;;;;;5036136;28;20030;-80
2021/06/01 11:56:42;;;;;;;3.08;1.77;;;;;;;;;;5038339;28;20060;-80
2021/06/01 12:02:19;;;;;;;2.42;1.88;;;;;;;;;;5048515;28;20048;-79
2021/06/01 12:20:50;;;;;;;1.85;1.70;;;;;;;;;;5043100;28;20034;-78
2021/06/01 12:23:33;;;;;;;2.97;1.17;;;;;;;;;;5045364;28;20018;-79
2021/06/01 12:26:02;;;;;;;1.75;1.52;;;;;;;;;;5061192;28;20087;-78
2021/06/01 12:31:17;;;;;;;3.70;2.13;;;;;;;;;;5066114;28;20036;-78
2021/06/01 12:33:43;;;;;;;1.85;1.75;;;;;;;;;;5065804;28;20041;-79
2021/06/01 12:41:55;;;;;;;1.80;1.55;;;;;;;;;;5045885;28;20039;-78
2021/06/01 12:44:22;;;;;;;1.45;1.35;;;;;;;;;;5042112;28;20017;-78
2021/06/01 13:46:10;;;;;;;1.45;1.20;;;;;;;;;;5034422;28;20035;-78
2021/06/01 13:56:17;;;;;;;2.85;1.60;;;;;;;;;;5045122;28;20029;-78
2021/06/01 14:20:58;;;;;;;2.60;1.17;;;;;;;;;;5034984;28;20036;-79
2021/06/01 14:31:41;;;;;;;2.55;1.23;;;;;;;;;;5055957;28;20068;-78
2021/06/01 15:49:40;;;;;;;1.83;1.02;;;;;;;;;;5056805;28;20146;-79
2021/06/01 16:22:46;;;;;;;1.60;1.50;;;;;;;;;;5060028;28;20082;-80
2021/06/01 16:33:27;;;;;;;1.47;0.97;;;;;;;;;;5042924;28;20427;-80
2021/06/01 16:44:21;;;;;;;2.70;1.10;;;;;;;;;;5043836;28;20021;-81
2021/06/01 17:03:36;;;;;;;1.38;0.80;;;;;;;;;;5037282;28;20056;-82
2021/06/01 17:06:05;;;;;;;2.60;1.10;;;;;;;;;;5040876;28;20037;-81
2021/06/01 17:13:41;;;;;;;1.70;1.55;;;;;;;;;;5041911;28;20022;-81
2021/06/01 17:16:13;;;;;;;2.42;1.33;;;;;;;;;;5038912;28;20021;-80
2021/06/01 17:34:40;;;;;;;3.88;1.15;;;;;;;;;;5039783;28;20052;-80
2021/06/01 17:37:07;;;;;;;1.35;1.20;;;;;;;;;;5038058;28;20104;-79
2021/06/01 17:39:34;;;;;;;3.15;1.02;;;;;;;;;;5038121;28;20013;-79
2021/06/01 17:42:00;;;;;;;1.67;1.40;;;;;;;;;;5037592;28;20036;-79
2021/06/01 17:44:30;;;;;;;1.50;1.20;;;;;;;;;;5052119;28;20100;-79
2021/06/01 17:46:58;;;;;;;3.60;1.10;;;;;;;;;;5040140;28;20025;-80
2021/06/01 17:49:26;;;;;;;1.63;0.90;;;;;;;;;;5039682;28;20026;-80
2021/06/01 17:51:52;;;;;;;2.67;1.10;;;;;;;;;;5039679;28;20450;-80
2021/06/01 17:54:29;;;;;;;3.15;1.33;;;;;;;;;;5044135;28;20037;-79
2021/06/01 17:56:55;;;;;;;2.38;1.40;;;;;;;;;;5044929;28;20029;-79
2021/06/01 17:59:22;;;;;;;2.75;1.05;;;;;;;;;;5039770;28;20091;-81
2021/06/01 18:01:48;;;;;;;3.30;1.30;;;;;;;;;;5038463;28;20021;-80
2021/06/01 18:04:16;;;;;;;2.42;1.17;;;;;;;;;;5041192;28;20044;-80
2021/06/01 18:06:48;;;;;;;2.38;1.08;;;;;;;;;;5045491;28;20033;-81
2021/06/01 19:12:01;;;;;;;2.10;0.85;;;;;;;;;;5056976;22;20405;-79
2021/06/01 19:50:41;;;;;;;2.33;1.10;;;;;;;;;;5003737;28;20645;-78
2021/06/01 19:53:09;;;;;;;0.93;0.73;;;;;;;;;;5001701;28;20029;-79
2021/06/01 19:55:35;;;;;;;0.98;0.90;;;;;;;;;;5004244;28;20030;-79
2021/06/01 19:58:01;;;;;;;1.20;1.10;;;;;;;;;;5021574;28;20083;-80
2021/06/01 20:00:27;;;;;;;2.45;1.23;;;;;;;;;;5022604;28;20069;-80
2021/06/01 20:02:53;;;;;;;1.75;1.05;;;;;;;;;;5023611;28;20033;-79
2021/06/01 20:05:20;;;;;;;1.85;1.23;;;;;;;;;;5022046;28;20029;-80
2021/06/01 20:07:47;;;;;;;1.55;1.05;;;;;;;;;;5028289;28;20038;-82
2021/06/01 20:10:15;;;;;;;1.55;1.23;;;;;;;;;;5023381;28;20398;-79
2021/06/01 20:12:41;;;;;;;1.27;1.00;;;;;;;;;;5006862;28;20030;-81
2021/06/01 20:15:08;;;;;;;3.17;1.20;;;;;;;;;;5029844;28;20042;-81
2021/06/01 20:17:39;;;;;;;4.07;1.05;;;;;;;;;;5020998;28;20038;-81
2021/06/01 20:20:19;;;;;;;2.17;1.40;;;;;;;;;;5022322;28;20022;-79
2021/06/01 20:22:47;;;;;;;3.63;1.73;;;;;;;;;;5020321;28;20049;-80
2021/06/01 20:25:13;;;;;;;7.47;2.42;;;;;;;;;;5022061;28;20489;-81
2021/06/01 20:27:48;;;;;;;2.33;1.55;;;;;;;;;;5021392;28;20038;-80
2021/06/01 20:30:25;;;;;;;2.08;1.52;;;;;;;;;;5021512;28;20025;-79
2021/06/01 20:35:35;;;;;;;4.25;1.48;;;;;;;;;;5025063;28;20034;-78
2021/06/01 20:38:05;;;;;;;2.20;1.55;;;;;;;;;;5026598;28;20030;-79
2021/06/01 20:40:31;;;;;;;3.17;1.30;;;;;;;;;;5022107;28;20045;-79
2021/06/01 20:42:57;;;;;;;1.25;1.15;;;;;;;;;;5028394;28;20278;-80
2021/06/01 20:45:28;;;;;;;1.38;1.27;;;;;;;;;;5043497;28;20048;-80
2021/06/01 20:47:59;;;;;;;2.42;1.67;;;;;;;;;;5034262;28;20030;-79
2021/06/01 20:50:27;;;;;;;1.67;1.30;;;;;;;;;;5021652;28;20117;-79
2021/06/01 20:52:53;;;;;;;1.58;1.08;;;;;;;;;;5038328;28;20475;-80
2021/06/01 20:55:19;;;;;;;1.65;1.55;;;;;;;;;;5025115;28;20038;-81
2021/06/01 20:57:56;;;;;;;1.15;1.02;;;;;;;;;;5038804;28;20022;-82
2021/06/01 21:00:25;;;;;;;2.17;1.55;;;;;;;;;;5022909;28;20033;-80
2021/06/01 21:02:52;;;;;;;1.83;1.27;;;;;;;;;;5027484;28;20347;-80
2021/06/01 21:05:18;;;;;;;2.28;1.40;;;;;;;;;;5032250;28;20022;-78
2021/06/01 21:07:45;;;;;;;1.20;1.10;;;;;;;;;;5034654;28;20080;-78
2021/06/01 21:10:12;;;;;;;1.88;1.15;;;;;;;;;;5035557;28;20030;-79
2021/06/01 21:12:38;;;;;;;1.30;1.10;;;;;;;;;;5042502;28;20036;-77
2021/06/01 21:15:05;;;;;;;1.63;1.20;;;;;;;;;;5033861;28;20018;-78
2021/06/01 21:17:31;;;;;;;2.05;1.20;;;;;;;;;;5032334;28;20085;-78
2021/06/01 21:19:58;;;;;;;2.17;1.52;;;;;;;;;;5029443;28;20084;-79
2021/06/01 21:22:24;;;;;;;2.03;1.38;;;;;;;;;;5027184;28;20036;-81
2021/06/01 21:24:50;;;;;;;1.27;1.13;;;;;;;;;;5024776;28;20030;-81
2021/06/01 21:27:19;;;;;;;1.00;0.90;;;;;;;;;;5023359;28;20081;-81
2021/06/01 21:29:47;;;;;;;1.42;1.33;;;;;;;;;;5021934;28;20044;-78
2021/06/01 21:32:17;;;;;;;2.00;1.80;;;;;;;;;;5021530;28;20049;-79
2021/06/01 21:34:46;;;;;;;1.83;1.42;;;;;;;;;;5021335;28;20106;-79
2021/06/01 21:37:12;;;;;;;1.95;1.35;;;;;;;;;;5021100;28;20026;-78
2021/06/01 21:39:40;;;;;;;4.72;1.70;;;;;;;;;;5020307;28;20119;-80
2021/06/01 21:42:06;;;;;;;2.50;1.70;;;;;;;;;;5037742;28;20021;-80
2021/06/01 21:44:34;;;;;;;1.58;1.45;;;;;;;;;;5034337;28;20499;-80
2021/06/01 21:47:01;;;;;;;2.92;1.27;;;;;;;;;;5041279;28;20080;-80
2021/06/01 21:49:27;;;;;;;2.72;1.55;;;;;;;;;;5025849;28;20395;-81
2021/06/01 21:51:55;;;;;;;2.03;1.40;;;;;;;;;;5025319;28;20056;-79
2021/06/01 21:54:23;;;;;;;2.85;1.50;;;;;;;;;;5024225;28;20037;-80
2021/06/01 21:56:51;;;;;;;4.07;1.23;;;;;;;;;;5022663;28;20447;-79
2021/06/01 21:59:20;;;;;;;1.90;1.40;;;;;;;;;;5023170;28;20049;-80
2021/06/01 22:01:47;;;;;;;2.58;1.35;;;;;;;;;;5021580;28;20030;-81
2021/06/01 22:04:13;;;;;;;3.30;1.83;;;;;;;;;;5022668;28;20022;-81
2021/06/01 22:06:39;;;;;;;1.27;1.17;;;;;;;;;;5022378;28;20038;-80
2021/06/01 22:09:06;;;;;;;1.10;1.00;;;;;;;;;;5022970;28;20072;-79
2021/06/01 22:11:32;;;;;;;1.77;1.27;;;;;;;;;;5023648;28;20473;-80
2021/06/01 22:13:58;;;;;;;3.55;1.38;;;;;;;;;;5030350;28;20517;-81
2021/06/01 22:16:28;;;;;;;3.05;1.42;;;;;;;;;;5023258;28;20436;-80
2021/06/01 22:18:56;;;;;;;2.45;1.50;;;;;;;;;;5024322;28;20117;-79